Time;durP1;ratioP1;P1;durP2;ratioP2;P2;SDS_P1;SDS_P2;PMS_P1;PMS_P2;Temp;Humidity;BMP_temperature;BMP_pressure;BME280_temperature;BME280_humidity;BME280_pressure;Samples;Min_cycle;Max_cycle;Signal;HPM_P1;HPM_P2
2022/04/12 00:01:23;;;;;;;5.60;1.55;;;;;;;2.70;67.31;99066.10;1663997;84;21016;-67
2022/04/12 00:03:50;;;;;;;8.50;2.37;;;;;;;2.68;67.71;99055.54;1667959;84;20996;-67
2022/04/12 00:06:17;;;;;;;6.17;2.22;;;;;;;2.69;67.50;99064.48;1657540;84;21543;-66
2022/04/12 00:08:45;;;;;;;5.15;2.30;;;;;;;2.69;67.50;99068.00;1662924;84;21546;-66
2022/04/12 00:11:13;;;;;;;6.60;2.45;;;;;;;2.68;67.64;99063.67;1673695;85;21444;-66
2022/04/12 00:13:40;;;;;;;5.67;1.92;;;;;;;2.67;68.05;99074.24;1681402;85;21151;-66
2022/04/12 00:16:08;;;;;;;6.78;2.10;;;;;;;2.69;68.54;99073.97;1670892;84;20968;-67
2022/04/12 00:21:20;;;;;;;6.15;2.25;;;;;;;2.69;68.03;99070.71;1677038;84;21047;-67
2022/04/12 00:23:48;;;;;;;9.03;2.12;;;;;;;2.68;67.93;99072.34;1663508;84;21456;-67
2022/04/12 00:26:16;;;;;;;5.67;1.98;;;;;;;2.67;68.02;99073.43;1667162;84;21161;-67
2022/04/12 00:28:43;;;;;;;7.35;2.40;;;;;;;2.65;68.67;99073.16;1668375;84;21567;-67
2022/04/12 00:31:10;;;;;;;8.10;2.80;;;;;;;2.68;68.29;99072.34;1654678;84;21123;-67
2022/04/12 00:33:37;;;;;;;6.37;2.35;;;;;;;2.65;68.28;99067.73;1669815;84;21097;-67
2022/04/12 00:36:06;;;;;;;9.95;2.47;;;;;;;2.64;68.26;99074.79;1660889;84;21607;-67
2022/04/12 00:38:35;;;;;;;10.32;2.50;;;;;;;2.62;68.34;99074.25;1667519;84;21162;-67
2022/04/12 00:41:04;;;;;;;5.45;2.35;;;;;;;2.60;69.38;99065.59;1659314;84;21398;-67
2022/04/12 00:43:35;;;;;;;6.03;2.40;;;;;;;2.58;68.90;99059.09;1660222;84;21023;-67
2022/04/12 00:46:08;;;;;;;5.35;2.42;;;;;;;2.56;68.81;99061.27;1634967;84;21000;-67
2022/04/12 00:48:34;;;;;;;6.60;3.17;;;;;;;2.53;68.89;99056.94;1679017;85;20966;-66
2022/04/12 00:51:04;;;;;;;6.62;2.22;;;;;;;2.50;70.29;99055.59;1680479;85;21126;-66
2022/04/12 00:53:31;;;;;;;11.97;3.40;;;;;;;2.52;69.87;99053.95;1662805;84;21501;-66
2022/04/12 00:55:58;;;;;;;8.48;2.20;;;;;;;2.50;69.30;99062.36;1665486;84;20981;-67
2022/04/12 00:58:27;;;;;;;7.58;2.65;;;;;;;2.48;69.42;99049.63;1662852;84;21552;-67
2022/04/12 01:00:54;;;;;;;11.33;3.75;;;;;;;2.46;69.49;99061.83;1675080;84;21095;-67
2022/04/12 01:03:20;;;;;;;8.98;3.17;;;;;;;2.45;69.99;99059.66;1668404;84;21618;-67
2022/04/12 01:05:47;;;;;;;9.50;2.83;;;;;;;2.43;69.94;99050.99;1665968;84;20930;-67
2022/04/12 01:08:16;;;;;;;11.08;3.67;;;;;;;2.40;70.26;99057.50;1665249;84;21063;-67
2022/04/12 01:10:45;;;;;;;9.00;2.70;;;;;;;2.37;70.33;99062.11;1666199;84;21037;-69
2022/04/12 01:13:13;;;;;;;8.18;2.60;;;;;;;2.30;70.60;99054.30;1661336;84;21631;-69
2022/04/12 01:15:42;;;;;;;8.98;2.52;;;;;;;2.25;70.93;99052.95;1665955;84;21226;-70
2022/04/12 01:18:10;;;;;;;7.00;2.20;;;;;;;2.22;71.39;99039.95;1692380;84;20984;-69
2022/04/12 01:20:37;;;;;;;5.50;2.05;;;;;;;2.18;71.54;99041.59;1665102;84;21463;-69
2022/04/12 01:23:22;;;;;;;4.35;1.98;;;;;;;2.14;71.71;99048.63;1672858;84;21080;-69
2022/04/12 01:25:48;;;;;;;8.28;3.05;;;;;;;2.08;72.23;99029.41;1682559;85;20992;-69
2022/04/12 01:28:15;;;;;;;7.58;3.00;;;;;;;2.05;72.75;99042.14;1677453;85;21248;-68
2022/04/12 01:30:43;;;;;;;4.28;2.22;;;;;;;2.05;73.00;99046.20;1666562;84;21047;-68
2022/04/12 01:33:11;;;;;;;8.38;2.83;;;;;;;2.02;72.60;99047.55;1671641;84;20957;-68
2022/04/12 01:35:42;;;;;;;6.20;2.40;;;;;;;2.01;72.64;99041.06;1672552;84;21543;-68
2022/04/12 01:38:08;;;;;;;9.25;2.65;;;;;;;1.98;72.89;99038.35;1663918;84;21050;-68
2022/04/12 01:40:37;;;;;;;5.40;2.33;;;;;;;1.97;72.83;99033.48;1664983;84;21133;-65
2022/04/12 01:43:05;;;;;;;4.83;2.10;;;;;;;1.96;73.05;99031.86;1683760;84;21010;-65
2022/04/12 01:45:32;;;;;;;7.70;2.50;;;;;;;1.97;73.05;99035.38;1674266;85;20996;-65
2022/04/12 01:47:59;;;;;;;6.20;2.25;;;;;;;1.95;73.04;99031.59;1677470;85;21006;-65
2022/04/12 01:50:26;;;;;;;4.45;1.95;;;;;;;1.94;73.34;99025.90;1631147;85;21191;-67
2022/04/12 01:52:54;;;;;;;6.92;2.00;;;;;;;1.94;73.26;99019.13;1615191;85;21832;-67
2022/04/12 01:55:21;;;;;;;7.72;2.33;;;;;;;1.96;73.61;99012.09;1604594;87;21041;-65
2022/04/12 01:57:50;;;;;;;5.58;2.37;;;;;;;1.97;73.39;99005.05;1605801;87;20959;-65
2022/04/12 02:00:17;;;;;;;5.83;1.90;;;;;;;1.97;73.19;99000.99;1615175;87;21036;-65
2022/04/12 02:02:45;;;;;;;4.83;2.27;;;;;;;1.97;73.26;99002.89;1609321;87;21063;-65
2022/04/12 02:05:12;;;;;;;8.53;2.72;;;;;;;1.96;73.34;99009.39;1618160;87;21163;-65
2022/04/12 02:07:43;;;;;;;5.47;1.87;;;;;;;1.94;74.04;99003.43;1608950;87;20976;-65
2022/04/12 02:10:12;;;;;;;10.38;2.30;;;;;;;1.93;73.65;99014.80;1615875;87;20933;-65
2022/04/12 02:12:40;;;;;;;7.20;2.90;;;;;;;1.91;73.54;99019.67;1619916;87;21049;-65
2022/04/12 02:15:09;;;;;;;8.53;2.80;;;;;;;1.88;73.61;99024.28;1619476;87;20981;-65
2022/04/12 02:17:35;;;;;;;6.58;2.25;;;;;;;1.85;73.83;99021.30;1616994;87;21201;-66
2022/04/12 02:20:05;;;;;;;4.08;1.87;;;;;;;1.84;74.75;99028.61;1612218;87;21053;-66
2022/04/12 02:22:33;;;;;;;7.50;2.42;;;;;;;1.81;74.40;99014.27;1615959;87;20973;-67
2022/04/12 02:25:01;;;;;;;8.93;2.30;;;;;;;1.78;74.39;99021.58;1594511;87;21113;-66
2022/04/12 02:27:28;;;;;;;4.35;2.33;;;;;;;1.76;74.53;99028.34;1623827;87;20933;-68
2022/04/12 02:29:55;;;;;;;6.22;2.12;;;;;;;1.71;74.76;99022.42;1617662;87;21474;-68
2022/04/12 02:32:22;;;;;;;7.05;2.42;;;;;;;1.67;75.25;99021.33;1611188;87;20934;-68
2022/04/12 02:34:49;;;;;;;5.83;2.02;;;;;;;1.67;75.53;99015.92;1624587;88;20900;-68
2022/04/12 02:37:16;;;;;;;4.28;2.00;;;;;;;1.65;75.28;99020.79;1620115;87;21028;-68
2022/04/12 02:39:42;;;;;;;6.67;1.98;;;;;;;1.63;75.37;99024.30;1604661;87;21483;-68
2022/04/12 02:42:09;;;;;;;6.33;2.42;;;;;;;1.58;75.56;99033.77;1605541;87;21143;-68
2022/04/12 02:44:36;;;;;;;5.90;2.17;;;;;;;1.54;76.77;99025.37;1620497;88;20962;-69
2022/04/12 02:47:04;;;;;;;3.62;1.80;;;;;;;1.52;76.57;99029.44;1609946;87;21019;-68
2022/04/12 02:49:31;;;;;;;4.53;2.02;;;;;;;1.49;76.37;99028.62;1609310;87;21566;-68
2022/04/12 02:51:58;;;;;;;5.25;2.35;;;;;;;1.44;76.52;99025.91;1607628;87;21095;-67
2022/04/12 02:54:24;;;;;;;7.97;2.80;;;;;;;1.39;76.93;99020.48;1619247;87;21588;-67
2022/04/12 02:56:51;;;;;;;7.10;2.72;;;;;;;1.37;78.53;99018.05;1620369;86;21013;-67
2022/04/12 02:59:18;;;;;;;4.20;2.33;;;;;;;1.36;77.61;99018.32;1626919;86;21475;-68
2022/04/12 03:01:48;;;;;;;3.00;2.22;;;;;;;1.33;77.39;99028.59;1627441;87;21537;-68
2022/04/12 03:04:15;;;;;;;14.15;3.20;;;;;;;1.29;77.42;99036.97;1612466;87;21028;-69
2022/04/12 03:06:42;;;;;;;5.85;2.52;;;;;;;1.25;77.64;99040.47;1612010;87;21247;-68
2022/04/12 03:09:10;;;;;;;8.83;2.12;;;;;;;1.22;78.26;99045.88;1615472;87;20906;-68
2022/04/12 03:11:38;;;;;;;7.35;2.45;;;;;;;1.20;78.31;99031.00;1624875;87;21644;-69
2022/04/12 03:14:08;;;;;;;8.93;2.70;;;;;;;1.18;78.19;99041.27;1613236;87;20994;-69
2022/04/12 03:16:35;;;;;;;8.23;2.75;;;;;;;1.15;78.14;99049.40;1636564;85;21010;-68
2022/04/12 03:19:03;;;;;;;8.98;3.15;;;;;;;1.11;78.54;99038.84;1642317;85;20994;-67
2022/04/12 03:21:33;;;;;;;9.20;3.83;;;;;;;1.10;79.96;99041.81;1665574;84;20937;-67
2022/04/12 03:23:59;;;;;;;7.58;3.20;;;;;;;1.10;78.95;99035.87;1681766;84;20953;-67
2022/04/12 03:26:28;;;;;;;8.15;3.05;;;;;;;1.08;78.76;99033.16;1663774;84;21713;-67
2022/04/12 03:28:54;;;;;;;6.33;3.17;;;;;;;1.05;78.90;99033.69;1642904;84;20977;-68
2022/04/12 03:31:21;;;;;;;7.75;3.98;;;;;;;1.01;79.02;99029.89;1666892;84;21161;-67
2022/04/12 03:33:59;;;;;;;;;;;;;;;;;;;;;
2022/04/12 03:36:18;;;;;;;7.95;3.05;;;;;;;0.98;79.74;99033.94;1669014;84;21073;-67
2022/04/12 03:38:49;;;;;;;8.10;3.35;;;;;;;0.93;79.70;99045.55;1677308;84;20981;-67
2022/04/12 03:41:21;;;;;;;7.75;3.10;;;;;;;0.90;79.93;99042.55;1674785;84;21032;-68
2022/04/12 03:43:49;;;;;;;7.50;2.83;;;;;;;0.86;80.00;99038.22;1680666;84;22296;-69
2022/04/12 03:46:16;;;;;;;6.97;2.90;;;;;;;0.82;81.10;99036.31;1680945;84;21001;-69
2022/04/12 03:48:43;;;;;;;7.37;2.77;;;;;;;0.81;81.13;99034.14;1677171;85;20954;-68
2022/04/12 03:51:12;;;;;;;11.15;3.12;;;;;;;0.80;80.90;99039.27;1638827;86;21050;-69
2022/04/12 03:53:39;;;;;;;6.53;3.00;;;;;;;0.77;80.89;99034.94;1655126;86;21128;-67
2022/04/12 03:56:07;;;;;;;7.90;2.95;;;;;;;0.74;81.24;99030.06;1643073;86;21158;-68
2022/04/12 03:58:37;;;;;;;8.90;3.02;;;;;;;0.74;81.87;99037.62;1648150;86;21072;-68
2022/04/12 04:01:05;;;;;;;7.05;3.33;;;;;;;0.76;82.34;99036.83;1645561;86;20993;-68
2022/04/12 04:03:32;;;;;;;8.23;3.00;;;;;;;0.79;81.95;99028.19;1640162;86;21072;-67
2022/04/12 04:05:58;;;;;;;10.80;3.05;;;;;;;0.79;81.82;99032.25;1644891;86;21219;-67
2022/04/12 04:08:26;;;;;;;8.85;3.35;;;;;;;0.81;81.69;99036.03;1647843;86;21002;-67
2022/04/12 04:10:54;;;;;;;10.75;3.22;;;;;;;0.81;82.01;99036.03;1641924;86;21511;-67
2022/04/12 04:13:24;;;;;;;8.98;3.62;;;;;;;0.84;82.18;99040.91;1642061;86;21509;-66
2022/04/12 04:15:53;;;;;;;6.72;3.00;;;;;;;0.87;81.82;99045.79;1647704;86;20880;-66
2022/04/12 04:18:21;;;;;;;10.48;3.95;;;;;;;0.88;81.71;99046.88;1642799;86;21034;-66
2022/04/12 04:20:49;;;;;;;11.15;3.90;;;;;;;0.92;81.67;99044.45;1652244;86;20887;-66
2022/04/12 04:23:16;;;;;;;10.00;3.27;;;;;;;0.95;82.16;99052.84;1646506;86;20923;-66
2022/04/12 04:25:44;;;;;;;8.35;3.05;;;;;;;0.99;81.43;99049.08;1656326;86;21048;-66
2022/04/12 04:28:21;;;;;;;10.38;3.40;;;;;;;1.03;81.24;99054.23;1650529;85;21028;-66
2022/04/12 04:30:45;;;;;;;5.72;3.00;;;;;;;1.08;81.11;99060.19;1643315;86;21028;-65
2022/04/12 04:33:14;;;;;;;6.65;2.75;;;;;;;1.11;80.96;99057.77;1644448;86;21165;-65
2022/04/12 04:35:41;;;;;;;7.22;2.90;;;;;;;1.14;81.60;99057.23;1643090;86;21446;-65
2022/04/12 04:38:08;;;;;;;8.45;2.98;;;;;;;1.22;81.00;99068.86;1641289;86;21025;-66
2022/04/12 04:40:36;;;;;;;8.95;3.02;;;;;;;1.28;80.30;99066.44;1644414;86;20978;-66
2022/04/12 04:43:03;;;;;;;9.80;3.92;;;;;;;1.32;80.88;99073.48;1651554;86;20961;-65
2022/04/12 04:45:30;;;;;;;11.90;4.47;;;;;;;1.41;80.90;99065.13;1654664;86;21137;-66
2022/04/12 04:47:58;;;;;;;10.60;4.45;;;;;;;1.49;80.11;99062.43;1652486;85;21456;-71
2022/04/12 04:50:29;;;;;;;10.78;4.67;;;;;;;1.52;79.26;99070.02;1644567;86;21546;-68
2022/04/12 04:53:04;;;;;;;9.45;3.83;;;;;;;1.57;79.15;99070.02;1643858;86;20961;-67
2022/04/12 04:55:42;;;;;;;8.53;3.37;;;;;;;1.60;80.16;99068.95;1651181;86;21000;-67
2022/04/12 04:58:05;;;;;;;7.75;3.15;;;;;;;1.65;79.32;99063.54;1648418;86;21348;-64
2022/04/12 05:00:34;;;;;;;8.03;3.60;;;;;;;1.73;78.55;99071.67;1652576;86;21414;-70
2022/04/12 05:03:02;;;;;;;8.95;3.08;;;;;;;1.80;78.32;99074.89;1675708;84;21022;-68
2022/04/12 05:05:28;;;;;;;11.22;3.67;;;;;;;1.87;77.45;99067.31;1679145;84;20954;-68
2022/04/12 05:07:57;;;;;;;9.50;3.58;;;;;;;1.94;77.27;99062.45;1672812;84;21616;-67
2022/04/12 05:10:31;;;;;;;10.90;4.35;;;;;;;2.04;77.68;99067.59;1672826;84;21600;-68
2022/04/12 05:13:00;;;;;;;9.80;4.28;;;;;;;2.15;76.31;99067.86;1670739;84;21289;-75
2022/04/12 05:15:28;;;;;;;11.60;3.47;;;;;;;2.23;75.48;99065.95;1675335;84;21014;-67
2022/04/12 05:17:55;;;;;;;13.48;3.77;;;;;;;2.31;74.87;99064.05;1673373;84;21469;-76
2022/04/12 05:20:24;;;;;;;9.75;3.87;;;;;;;2.40;74.32;99069.69;1676614;85;20998;-69
2022/04/12 05:22:53;;;;;;;6.45;3.47;;;;;;;2.51;76.00;99068.05;1670549;84;21216;-70
2022/04/12 05:25:20;;;;;;;14.63;4.08;;;;;;;2.64;72.83;99060.70;1676901;84;21497;-69
2022/04/12 05:27:47;;;;;;;11.15;4.55;;;;;;;2.74;72.16;99058.50;1675123;84;21541;-69
2022/04/12 05:30:14;;;;;;;11.57;3.72;;;;;;;2.83;71.73;99056.84;1674849;84;20978;-68
2022/04/12 05:32:48;;;;;;;9.20;3.50;;;;;;;2.93;72.23;99066.27;1671762;84;20986;-67
2022/04/12 05:35:11;;;;;;;8.50;3.62;;;;;;;3.04;71.21;99060.26;1668535;84;21285;-67
2022/04/12 05:37:53;;;;;;;8.28;3.37;;;;;;;3.18;70.12;99063.18;1672782;84;21028;-69
2022/04/12 05:40:21;;;;;;;10.23;2.70;;;;;;;3.26;69.41;99045.77;1672124;84;21647;-71
2022/04/12 05:42:51;;;;;;;10.82;2.90;;;;;;;3.34;69.04;99053.06;1640081;84;21195;-73
2022/04/12 05:45:18;;;;;;;12.73;3.58;;;;;;;3.45;68.52;99062.22;1617506;87;21034;-72
2022/04/12 05:47:55;;;;;;;10.10;4.85;;;;;;;3.56;67.75;99060.22;1622729;87;21833;-75
2022/04/12 05:50:25;;;;;;;10.30;3.77;;;;;;;3.61;67.04;99059.64;1614638;87;20972;-68
2022/04/12 05:52:53;;;;;;;8.80;3.77;;;;;;;3.72;67.10;99065.81;1576351;89;21486;-70
2022/04/12 05:55:22;;;;;;;6.75;2.92;;;;;;;3.85;66.62;99065.72;1580656;89;21010;-68
2022/04/12 05:57:57;;;;;;;8.65;2.62;;;;;;;3.94;66.48;99062.67;1603165;88;21028;-76
2022/04/12 06:00:24;;;;;;;9.73;3.30;;;;;;;4.06;65.92;99057.65;1607631;88;21211;-69
2022/04/12 06:02:52;;;;;;;9.00;3.22;;;;;;;4.17;64.67;99069.23;1608691;86;21126;-66
2022/04/12 06:05:19;;;;;;;12.45;3.02;;;;;;;4.24;64.70;99061.57;1636876;86;21528;-68
2022/04/12 06:07:47;;;;;;;6.08;2.92;;;;;;;4.35;64.04;99074.52;1611492;86;21545;-67
2022/04/12 06:10:16;;;;;;;6.78;2.83;;;;;;;4.45;64.16;99071.16;1617190;86;21076;-67
2022/04/12 06:12:44;;;;;;;9.55;2.50;;;;;;;4.67;62.33;99066.55;1633132;85;21048;-67
2022/04/12 06:15:11;;;;;;;7.33;3.27;;;;;;;4.67;62.33;99066.55;1627655;86;21020;-67
2022/04/12 06:17:40;;;;;;;10.38;2.87;;;;;;;4.75;61.71;99070.55;1599008;88;21048;-67
2022/04/12 06:20:11;;;;;;;9.48;3.27;;;;;;;4.88;61.80;99072.58;1621585;87;21088;-68
2022/04/12 06:22:38;;;;;;;10.45;3.02;;;;;;;4.97;60.70;99080.36;1621448;87;21148;-68
2022/04/12 06:25:07;;;;;;;9.73;3.30;;;;;;;5.08;60.60;99078.33;1633497;85;21767;-68
2022/04/12 06:27:36;;;;;;;10.25;2.77;;;;;;;5.20;59.61;99071.34;1634382;86;21510;-67
2022/04/12 06:30:13;;;;;;;6.17;2.62;;;;;;;5.39;58.31;99071.37;1621930;86;21032;-66
2022/04/12 06:32:42;;;;;;;12.65;4.20;;;;;;;5.39;58.31;99071.37;1617882;86;20994;-67
2022/04/12 06:35:09;;;;;;;25.48;8.30;;;;;;;5.52;59.17;99080.17;1617448;86;21052;-68
2022/04/12 06:37:40;;;;;;;17.75;5.72;;;;;;;5.63;58.97;99068.59;1631026;86;21018;-68
2022/04/12 06:40:09;;;;;;;9.53;3.58;;;;;;;5.79;55.80;99068.59;1620400;87;20978;-82
2022/04/12 06:42:37;;;;;;;12.20;4.40;;;;;;;5.86;56.29;99052.67;1664570;84;21018;-81
2022/04/12 06:45:05;;;;;;;7.65;3.00;;;;;;;5.94;56.19;99060.77;1682417;84;21049;-75
2022/04/12 06:47:33;;;;;;;9.18;2.83;;;;;;;5.99;56.97;99060.68;1686933;84;21084;-75
2022/04/12 06:50:00;;;;;;;11.40;2.58;;;;;;;6.15;56.41;99060.69;1672907;84;21118;-76
2022/04/12 06:52:27;;;;;;;6.58;2.08;;;;;;;6.27;55.55;99056.94;1676507;84;21057;-70
2022/04/12 06:54:55;;;;;;;10.82;2.30;;;;;;;6.43;54.74;99057.45;1671294;84;21046;-70
2022/04/12 06:57:21;;;;;;;12.58;2.65;;;;;;;6.53;53.90;99065.45;1665993;84;20990;-65
2022/04/12 06:59:53;;;;;;;7.28;3.08;;;;;;;6.62;55.09;99059.55;1671139;84;21561;-68
2022/04/12 07:02:19;;;;;;;8.83;2.15;;;;;;;6.72;52.82;99038.66;1674379;84;21491;-64
2022/04/12 07:04:46;;;;;;;7.20;2.40;;;;;;;6.76;53.55;99056.03;1669472;84;21091;-71
2022/04/12 07:07:12;;;;;;;11.38;3.33;;;;;;;6.89;52.96;99063.42;1652622;84;21828;-72
2022/04/12 07:09:39;;;;;;;7.83;3.02;;;;;;;6.89;52.96;99063.42;1629790;86;21155;-73
2022/04/12 07:12:08;;;;;;;9.90;3.17;;;;;;;6.95;53.14;99060.25;1633061;86;21117;-73
2022/04/12 07:14:36;;;;;;;7.35;2.30;;;;;;;7.05;53.63;99056.52;1633875;85;21175;-69
2022/04/12 07:17:05;;;;;;;10.58;2.65;;;;;;;7.20;52.58;99052.11;1639675;85;21104;-70
2022/04/12 07:19:35;;;;;;;8.08;2.67;;;;;;;7.35;51.72;99050.16;1644272;85;21271;-66
2022/04/12 07:22:01;;;;;;;5.50;2.12;;;;;;;7.46;51.12;99047.46;1648047;86;20962;-65
2022/04/12 07:24:28;;;;;;;9.70;3.05;;;;;;;7.62;53.54;99044.61;1629236;85;21079;-65
2022/04/12 07:26:57;;;;;;;9.28;2.47;;;;;;;7.84;51.34;99048.73;1641942;86;21029;-65
2022/04/12 07:29:23;;;;;;;10.78;2.77;;;;;;;7.99;50.77;99038.55;1644909;85;21033;-69
2022/04/12 07:31:52;;;;;;;15.48;2.72;;;;;;;8.11;51.51;99052.44;1635075;86;21671;-64
2022/04/12 07:34:18;;;;;;;6.67;2.08;;;;;;;8.25;48.84;99031.30;1640530;85;20977;-65
2022/04/12 07:36:47;;;;;;;7.40;2.85;;;;;;;8.26;48.71;99045.23;1647623;85;21634;-65
2022/04/12 07:39:16;;;;;;;10.65;3.10;;;;;;;8.29;49.15;99041.87;1640298;85;21798;-64
2022/04/12 07:41:45;;;;;;;9.93;3.15;;;;;;;8.48;49.13;99030.19;1649904;86;20993;-72
2022/04/12 07:44:15;;;;;;;10.43;2.47;;;;;;;8.61;48.17;99038.05;1636421;85;21057;-65
2022/04/12 07:46:43;;;;;;;7.30;3.00;;;;;;;8.76;47.86;99038.17;1638420;85;20980;-67
2022/04/12 07:49:10;;;;;;;8.95;2.77;;;;;;;9.00;47.97;99045.43;1636310;86;21631;-75
2022/04/12 07:51:37;;;;;;;8.55;2.65;;;;;;;9.15;45.99;99040.08;1614435;86;21287;-73
2022/04/12 07:54:06;;;;;;;8.63;2.20;;;;;;;9.11;46.10;99048.69;1617812;87;21053;-73
2022/04/12 07:56:33;;;;;;;11.97;3.05;;;;;;;9.06;46.90;99042.80;1623954;85;20987;-74
2022/04/12 07:59:01;;;;;;;9.58;2.50;;;;;;;9.13;46.54;99033.55;1603153;87;21110;-77
2022/04/12 08:01:29;;;;;;;7.75;2.37;;;;;;;9.18;46.91;99025.19;1601916;87;21033;-82
2022/04/12 08:03:55;;;;;;;7.40;2.62;;;;;;;9.28;47.32;99025.42;1617375;87;21429;-77
2022/04/12 08:06:22;;;;;;;5.85;2.08;;;;;;;9.23;45.93;99039.30;1612343;87;21109;-76
2022/04/12 08:08:49;;;;;;;11.10;2.27;;;;;;;9.01;46.25;99030.61;1614802;87;21184;-67
2022/04/12 08:11:15;;;;;;;8.85;2.35;;;;;;;8.90;46.95;99030.66;1631452;84;21043;-70
2022/04/12 08:13:45;;;;;;;10.05;2.12;;;;;;;8.94;47.52;99031.64;1644551;85;21588;-77
2022/04/12 08:16:15;;;;;;;6.22;2.08;;;;;;;9.11;47.19;99036.36;1656359;85;21643;-74
2022/04/12 08:18:44;;;;;;;9.55;2.00;;;;;;;9.19;47.93;99022.69;1660573;86;21029;-72
2022/04/12 08:21:11;;;;;;;6.10;2.40;;;;;;;9.27;45.15;99016.95;1656769;84;21030;-66
2022/04/12 08:23:38;;;;;;;4.97;1.80;;;;;;;9.32;45.29;99020.11;1675611;85;20915;-70
2022/04/12 08:26:07;;;;;;;9.30;2.20;;;;;;;9.39;46.18;99021.81;1644914;84;21745;-71
2022/04/12 08:28:36;;;;;;;6.55;2.62;;;;;;;9.43;45.43;99040.59;1622492;86;21520;-72
2022/04/12 08:31:02;;;;;;;9.45;3.00;;;;;;;9.40;45.71;99023.42;1624621;85;20951;-67
2022/04/12 08:33:29;;;;;;;8.33;2.35;;;;;;;9.39;45.37;99028.66;1662125;84;21073;-68
2022/04/12 08:35:56;;;;;;;8.23;2.47;;;;;;;9.30;44.51;99039.59;1659463;85;21135;-67
2022/04/12 08:38:25;;;;;;;14.30;2.17;;;;;;;9.18;45.81;99042.18;1657768;85;21737;-68
2022/04/12 08:40:54;;;;;;;8.50;2.40;;;;;;;9.14;44.08;99040.64;1658565;84;21289;-68
2022/04/12 08:43:25;;;;;;;9.15;2.00;;;;;;;9.11;44.19;99035.80;1657484;84;21090;-69
2022/04/12 08:45:54;;;;;;;5.85;1.70;;;;;;;9.17;45.28;99023.58;1658617;84;21082;-67
2022/04/12 08:48:24;;;;;;;6.45;1.95;;;;;;;9.33;44.84;99031.30;1677386;84;21001;-67
2022/04/12 08:50:58;;;;;;;14.28;2.10;;;;;;;9.60;45.18;99046.09;1663199;84;21028;-67
2022/04/12 08:53:27;;;;;;;7.93;1.83;;;;;;;9.88;44.19;99031.48;1675497;84;21278;-70
2022/04/12 08:56:00;;;;;;;6.83;2.10;;;;;;;10.09;43.48;99035.74;1649673;85;21570;-66
2022/04/12 08:58:30;;;;;;;6.30;1.52;;;;;;;10.00;43.03;99023.41;1683775;84;21041;-67
2022/04/12 09:00:59;;;;;;;10.30;2.17;;;;;;;9.84;42.10;99025.84;1654709;85;21015;-66
2022/04/12 09:03:27;;;;;;;6.42;1.82;;;;;;;9.93;43.11;99016.23;1620390;85;21038;-68
2022/04/12 09:05:59;;;;;;;10.15;1.62;;;;;;;10.10;42.32;99029.12;1671797;84;21026;-66
2022/04/12 09:08:32;;;;;;;5.85;1.75;;;;;;;10.22;42.80;99020.50;1686023;84;20937;-66
2022/04/12 09:11:05;;;;;;;4.10;1.27;;;;;;;10.60;42.26;99010.13;1663647;84;20973;-75
2022/04/12 09:13:36;;;;;;;3.58;1.30;;;;;;;11.09;42.83;99018.19;1643309;85;21599;-73
2022/04/12 09:16:10;;;;;;;4.47;1.30;;;;;;;11.63;40.81;99016.92;1648272;86;20986;-70
2022/04/12 09:18:43;;;;;;;6.25;1.45;;;;;;;12.03;39.64;99009.02;1644758;86;21563;-66
2022/04/12 09:21:16;;;;;;;6.62;1.50;;;;;;;12.34;39.54;99011.27;1655671;86;21489;-67
2022/04/12 09:23:58;;;;;;;5.92;1.40;;;;;;;12.71;38.16;99001.70;1587309;89;21098;-68
2022/04/12 09:26:30;;;;;;;4.37;1.42;;;;;;;13.01;36.97;99010.53;1604232;87;20947;-67
2022/04/12 09:29:02;;;;;;;8.48;1.55;;;;;;;12.65;36.97;99003.08;1621446;86;21052;-73
2022/04/12 09:31:35;;;;;;;5.65;1.40;;;;;;;12.37;38.12;99000.95;1659445;85;21173;-68
2022/04/12 09:34:08;;;;;;;7.37;1.67;;;;;;;12.24;37.05;98989.11;1640961;84;21003;-66
2022/04/12 09:36:43;;;;;;;6.33;1.52;;;;;;;11.91;35.79;99000.72;1615149;86;21058;-67
2022/04/12 09:39:09;;;;;;;7.08;1.42;;;;;;;11.86;37.39;98994.05;1639181;86;21079;-66
2022/04/12 09:41:40;;;;;;;7.45;1.17;;;;;;;12.18;37.59;98993.80;1614474;86;20925;-67
2022/04/12 09:44:16;;;;;;;5.75;1.50;;;;;;;12.49;34.96;98989.97;1646755;86;21017;-66
2022/04/12 09:46:48;;;;;;;5.10;1.45;;;;;;;12.59;35.94;98994.80;1651534;86;21547;-66
2022/04/12 09:49:21;;;;;;;5.83;1.47;;;;;;;12.54;36.78;98994.45;1585266;88;21591;-66
2022/04/12 09:51:52;;;;;;;3.95;1.12;;;;;;;12.23;35.99;98995.76;1647202;86;21017;-67
2022/04/12 09:54:34;;;;;;;10.15;1.60;;;;;;;11.76;35.65;98985.61;1636478;85;21093;-67
2022/04/12 09:56:55;;;;;;;4.90;1.00;;;;;;;11.40;37.41;98996.43;1633690;85;21261;-67
2022/04/12 09:59:30;;;;;;;9.20;1.80;;;;;;;11.62;38.68;98991.14;1645699;86;21144;-66
2022/04/12 10:01:57;;;;;;;5.08;1.62;;;;;;;11.83;37.10;98976.27;1624662;85;21130;-65
2022/04/12 10:04:29;;;;;;;7.03;1.05;;;;;;;11.58;36.97;98979.45;1649693;84;21074;-65
2022/04/12 10:06:57;;;;;;;7.35;1.30;;;;;;;11.34;37.66;98997.20;1647395;85;21121;-66
2022/04/12 10:09:24;;;;;;;3.08;1.05;;;;;;;11.39;37.44;98988.75;1661155;84;22026;-66
2022/04/12 10:11:58;;;;;;;7.78;1.80;;;;;;;11.59;35.37;98977.50;1625099;85;21529;-66
2022/04/12 10:14:25;;;;;;;5.60;1.47;;;;;;;11.60;35.54;98994.23;1654320;84;22241;-67
2022/04/12 10:16:59;;;;;;;9.95;1.75;;;;;;;11.51;37.01;98994.33;1657074;84;20983;-67
2022/04/12 10:19:29;;;;;;;4.12;1.42;;;;;;;11.38;36.56;98980.27;1630594;86;21115;-70
2022/04/12 10:22:02;;;;;;;;;;;;;;;11.18;36.74;98996.97;1616861;86;21051;-71
2022/04/12 10:24:33;;;;;;;4.30;1.62;;;;;;;10.93;38.26;99008.94;1617107;88;20462;-66
2022/04/12 10:27:05;;;;;;;9.08;2.10;;;;;;;10.96;39.92;99000.03;1583878;87;22068;-66
2022/04/12 10:29:36;;;;;;;;;;;;;;;11.20;38.16;99005.69;1638943;85;21036;-70
2022/04/12 10:32:04;;;;;;;6.22;1.87;;;;;;;11.59;36.63;99000.30;1630841;84;20219;-69
2022/04/12 10:34:33;;;;;;;6.60;1.80;;;;;;;11.79;37.31;99011.09;1657435;85;21254;-69
2022/04/12 10:37:13;;;;;;;5.65;1.50;;;;;;;11.71;36.70;99017.43;1660460;84;21132;-69
2022/04/12 10:39:50;;;;;;;5.75;1.70;;;;;;;11.51;36.89;99012.77;1611619;87;21059;-67
2022/04/12 10:42:22;;;;;;;5.90;1.27;;;;;;;11.42;37.08;98984.53;1584543;87;21655;-66
2022/04/12 10:44:56;;;;;;;12.37;1.90;;;;;;;11.42;37.53;99018.31;1613457;86;20980;-68
2022/04/12 10:47:35;;;;;;;5.50;1.62;;;;;;;11.70;37.81;99007.57;1621127;87;21936;-68
2022/04/12 10:50:11;;;;;;;2.30;1.07;;;;;;;12.00;37.44;99015.19;1661449;84;20982;-69
2022/04/12 10:52:50;;;;;;;4.28;0.93;;;;;;;11.97;36.74;99029.62;1666515;85;20994;-68
2022/04/12 10:55:25;;;;;;;3.62;1.07;;;;;;;11.65;35.20;99022.09;1635784;85;21081;-66
2022/04/12 10:57:53;;;;;;;8.13;1.70;;;;;;;11.41;36.02;99029.08;1667891;84;21077;-65
2022/04/12 11:00:22;;;;;;;6.30;1.85;;;;;;;11.34;36.84;99030.17;1637439;85;21287;-65
2022/04/12 11:03:00;;;;;;;4.37;1.75;;;;;;;11.33;37.06;99024.44;1625837;87;21534;-66
2022/04/12 11:05:40;;;;;;;5.15;1.55;;;;;;;11.21;36.06;99033.97;1627997;87;20997;-68
2022/04/12 11:08:17;;;;;;;4.67;1.90;;;;;;;10.90;36.97;99024.70;1606916;87;21135;-67
2022/04/12 11:10:57;;;;;;;4.50;1.77;;;;;;;10.57;37.61;99013.53;1602584;86;21906;-67
2022/04/12 11:13:33;;;;;;;12.73;2.30;;;;;;;10.30;38.09;99025.73;1629916;86;21268;-67
2022/04/12 11:16:09;;;;;;;5.33;1.60;;;;;;;10.04;38.74;99027.68;1619126;87;20962;-67
2022/04/12 11:18:52;;;;;;;5.53;1.10;;;;;;;9.77;38.56;99009.66;1610826;87;21531;-67
2022/04/12 11:21:31;;;;;;;7.92;1.80;;;;;;;9.62;39.29;99033.44;1628150;87;20989;-66
2022/04/12 11:24:01;;;;;;;2.52;1.10;;;;;;;9.50;39.99;99035.44;1639013;85;21150;-67
2022/04/12 11:26:50;;;;;;;6.80;2.08;;;;;;;9.45;40.30;99004.09;1624119;85;21062;-66
2022/04/12 11:29:26;;;;;;;15.25;2.33;;;;;;;9.49;40.99;99027.78;1661268;84;20950;-67
2022/04/12 11:31:59;;;;;;;8.50;1.85;;;;;;;9.56;40.80;99024.57;1646275;85;21033;-67
2022/04/12 11:34:28;;;;;;;15.32;6.40;;;;;;;9.60;40.52;99033.77;1620095;85;21237;-67
2022/04/12 11:37:00;;;;;;;15.50;6.12;;;;;;;9.59;40.62;99031.59;1667825;84;21037;-67
2022/04/12 11:39:41;;;;;;;14.75;5.58;;;;;;;9.60;39.69;99040.05;1692490;84;21265;-71
2022/04/12 11:42:16;;;;;;;5.60;1.12;;;;;;;9.60;40.39;99040.61;1645658;85;20935;-72
2022/04/12 11:44:58;;;;;;;5.65;1.98;;;;;;;9.66;40.36;99035.78;1638426;86;21062;-71
2022/04/12 11:47:33;;;;;;;6.55;2.05;;;;;;;9.65;38.71;99045.94;1613492;87;21012;-73
2022/04/12 11:50:18;;;;;;;8.18;3.22;;;;;;;9.56;39.54;99045.12;1596829;88;20934;-74
2022/04/12 11:52:50;;;;;;;7.10;2.90;;;;;;;9.52;40.64;99042.78;1589979;88;21214;-67